sensor_id;sensor_type;location;lat;lon;timestamp;P1;durP1;ratioP1;P2;durP2;ratioP2
20379;SDS011;10349;48.666;8.948;2023-02-28T00:01:25;2.20;;;2.10;;
20379;SDS011;10349;48.666;8.948;2023-02-28T00:03:51;2.80;;;2.17;;
20379;SDS011;10349;48.666;8.948;2023-02-28T00:06:18;2.77;;;2.57;;
20379;SDS011;10349;48.666;8.948;2023-02-28T00:08:45;2.43;;;2.20;;
20379;SDS011;10349;48.666;8.948;2023-02-28T00:11:12;2.70;;;2.50;;
20379;SDS011;10349;48.666;8.948;2023-02-28T00:13:43;4.03;;;2.40;;
20379;SDS011;10349;48.666;8.948;2023-02-28T00:16:12;3.70;;;2.33;;
20379;SDS011;10349;48.666;8.948;2023-02-28T00:18:40;2.23;;;2.13;;
20379;SDS011;10349;48.666;8.948;2023-02-28T00:21:06;2.43;;;2.23;;
20379;SDS011;10349;48.666;8.948;2023-02-28T00:23:33;3.73;;;2.17;;
20379;SDS011;10349;48.666;8.948;2023-02-28T00:25:59;3.27;;;2.97;;
20379;SDS011;10349;48.666;8.948;2023-02-28T00:28:25;3.50;;;2.83;;
20379;SDS011;10349;48.666;8.948;2023-02-28T00:30:51;2.60;;;2.50;;
20379;SDS011;10349;48.666;8.948;2023-02-28T00:33:17;2.67;;;2.47;;
20379;SDS011;10349;48.666;8.948;2023-02-28T00:35:43;4.73;;;3.23;;
20379;SDS011;10349;48.666;8.948;2023-02-28T00:38:15;2.60;;;2.47;;
20379;SDS011;10349;48.666;8.948;2023-02-28T00:40:41;2.93;;;2.73;;
20379;SDS011;10349;48.666;8.948;2023-02-28T00:43:07;2.20;;;1.97;;
20379;SDS011;10349;48.666;8.948;2023-02-28T00:45:32;2.43;;;2.33;;
20379;SDS011;10349;48.666;8.948;2023-02-28T00:47:58;3.37;;;2.43;;
20379;SDS011;10349;48.666;8.948;2023-02-28T00:50:24;2.47;;;2.30;;
20379;SDS011;10349;48.666;8.948;2023-02-28T00:52:50;3.77;;;2.90;;
20379;SDS011;10349;48.666;8.948;2023-02-28T00:55:16;6.73;;;3.00;;
20379;SDS011;10349;48.666;8.948;2023-02-28T00:57:43;2.80;;;2.60;;
20379;SDS011;10349;48.666;8.948;2023-02-28T01:00:09;4.10;;;2.90;;
20379;SDS011;10349;48.666;8.948;2023-02-28T01:02:36;2.63;;;2.43;;
20379;SDS011;10349;48.666;8.948;2023-02-28T01:05:01;3.47;;;2.40;;
20379;SDS011;10349;48.666;8.948;2023-02-28T01:07:29;2.20;;;2.00;;
20379;SDS011;10349;48.666;8.948;2023-02-28T01:09:54;2.30;;;1.73;;
20379;SDS011;10349;48.666;8.948;2023-02-28T01:12:20;3.20;;;2.10;;
20379;SDS011;10349;48.666;8.948;2023-02-28T01:14:46;3.07;;;2.90;;
20379;SDS011;10349;48.666;8.948;2023-02-28T01:17:12;2.17;;;2.07;;
20379;SDS011;10349;48.666;8.948;2023-02-28T01:19:38;2.60;;;2.50;;
20379;SDS011;10349;48.666;8.948;2023-02-28T01:22:04;3.00;;;2.63;;
20379;SDS011;10349;48.666;8.948;2023-02-28T01:24:30;2.00;;;1.87;;
20379;SDS011;10349;48.666;8.948;2023-02-28T01:26:57;2.90;;;2.57;;
20379;SDS011;10349;48.666;8.948;2023-02-28T01:29:23;2.53;;;2.37;;
20379;SDS011;10349;48.666;8.948;2023-02-28T01:31:50;2.63;;;2.40;;
20379;SDS011;10349;48.666;8.948;2023-02-28T01:34:15;2.60;;;2.40;;
20379;SDS011;10349;48.666;8.948;2023-02-28T01:36:45;2.57;;;2.37;;
20379;SDS011;10349;48.666;8.948;2023-02-28T01:39:11;2.77;;;2.57;;
20379;SDS011;10349;48.666;8.948;2023-02-28T01:41:38;2.80;;;2.70;;
20379;SDS011;10349;48.666;8.948;2023-02-28T01:47:10;3.17;;;2.87;;
20379;SDS011;10349;48.666;8.948;2023-02-28T01:49:36;2.87;;;2.70;;
20379;SDS011;10349;48.666;8.948;2023-02-28T01:52:01;10.20;;;2.53;;
20379;SDS011;10349;48.666;8.948;2023-02-28T01:54:31;7.20;;;2.10;;
20379;SDS011;10349;48.666;8.948;2023-02-28T01:57:07;7.20;;;3.23;;
20379;SDS011;10349;48.666;8.948;2023-02-28T01:59:37;3.10;;;2.20;;
20379;SDS011;10349;48.666;8.948;2023-02-28T02:02:12;3.57;;;2.97;;
20379;SDS011;10349;48.666;8.948;2023-02-28T02:04:41;16.20;;;3.10;;
20379;SDS011;10349;48.666;8.948;2023-02-28T02:07:13;3.10;;;2.47;;
20379;SDS011;10349;48.666;8.948;2023-02-28T02:09:43;2.67;;;2.47;;
20379;SDS011;10349;48.666;8.948;2023-02-28T02:12:13;3.37;;;2.70;;
20379;SDS011;10349;48.666;8.948;2023-02-28T02:15:14;4.10;;;3.30;;
20379;SDS011;10349;48.666;8.948;2023-02-28T02:17:51;3.93;;;2.80;;
20379;SDS011;10349;48.666;8.948;2023-02-28T02:32:14;2.77;;;2.63;;
20379;SDS011;10349;48.666;8.948;2023-02-28T02:45:38;2.23;;;2.13;;
20379;SDS011;10349;48.666;8.948;2023-02-28T02:48:10;9.00;;;3.53;;
20379;SDS011;10349;48.666;8.948;2023-02-28T02:50:42;3.60;;;3.30;;
20379;SDS011;10349;48.666;8.948;2023-02-28T02:53:11;3.33;;;3.13;;
20379;SDS011;10349;48.666;8.948;2023-02-28T02:55:41;4.07;;;3.60;;
20379;SDS011;10349;48.666;8.948;2023-02-28T02:58:10;3.83;;;3.27;;
20379;SDS011;10349;48.666;8.948;2023-02-28T03:00:52;5.13;;;2.30;;
20379;SDS011;10349;48.666;8.948;2023-02-28T03:03:21;3.40;;;3.23;;
20379;SDS011;10349;48.666;8.948;2023-02-28T03:05:54;6.17;;;2.80;;
20379;SDS011;10349;48.666;8.948;2023-02-28T03:08:21;9.20;;;2.40;;
20379;SDS011;10349;48.666;8.948;2023-02-28T03:10:51;3.33;;;3.03;;
20379;SDS011;10349;48.666;8.948;2023-02-28T03:16:35;5.07;;;3.10;;
20379;SDS011;10349;48.666;8.948;2023-02-28T03:22:14;3.10;;;2.90;;
20379;SDS011;10349;48.666;8.948;2023-02-28T03:24:57;2.73;;;2.57;;
20379;SDS011;10349;48.666;8.948;2023-02-28T03:35:56;5.37;;;3.50;;
20379;SDS011;10349;48.666;8.948;2023-02-28T03:41:03;3.67;;;3.37;;
20379;SDS011;10349;48.666;8.948;2023-02-28T03:43:36;3.70;;;3.40;;
20379;SDS011;10349;48.666;8.948;2023-02-28T03:46:09;3.43;;;2.93;;
20379;SDS011;10349;48.666;8.948;2023-02-28T03:51:08;3.93;;;3.63;;
20379;SDS011;10349;48.666;8.948;2023-02-28T03:53:38;4.43;;;3.63;;
20379;SDS011;10349;48.666;8.948;2023-02-28T03:56:53;4.30;;;4.00;;
20379;SDS011;10349;48.666;8.948;2023-02-28T03:59:05;5.10;;;4.70;;
20379;SDS011;10349;48.666;8.948;2023-02-28T04:01:40;6.10;;;3.63;;
20379;SDS011;10349;48.666;8.948;2023-02-28T04:04:08;4.07;;;3.43;;
20379;SDS011;10349;48.666;8.948;2023-02-28T04:06:36;3.57;;;3.30;;
20379;SDS011;10349;48.666;8.948;2023-02-28T04:09:03;8.60;;;4.20;;
20379;SDS011;10349;48.666;8.948;2023-02-28T04:13:59;4.07;;;3.67;;
20379;SDS011;10349;48.666;8.948;2023-02-28T04:16:26;4.00;;;3.70;;
20379;SDS011;10349;48.666;8.948;2023-02-28T04:18:52;5.00;;;3.87;;
20379;SDS011;10349;48.666;8.948;2023-02-28T04:21:18;4.23;;;3.80;;
20379;SDS011;10349;48.666;8.948;2023-02-28T04:23:46;6.17;;;4.40;;
20379;SDS011;10349;48.666;8.948;2023-02-28T04:26:11;8.20;;;4.47;;
20379;SDS011;10349;48.666;8.948;2023-02-28T04:28:37;6.70;;;3.97;;
20379;SDS011;10349;48.666;8.948;2023-02-28T04:31:04;4.33;;;3.87;;
20379;SDS011;10349;48.666;8.948;2023-02-28T04:33:31;7.13;;;4.53;;
20379;SDS011;10349;48.666;8.948;2023-02-28T04:35:58;5.87;;;5.00;;
20379;SDS011;10349;48.666;8.948;2023-02-28T04:38:30;9.60;;;4.73;;
20379;SDS011;10349;48.666;8.948;2023-02-28T04:41:02;7.00;;;5.10;;
20379;SDS011;10349;48.666;8.948;2023-02-28T04:43:28;8.00;;;4.53;;
20379;SDS011;10349;48.666;8.948;2023-02-28T04:45:55;4.50;;;3.83;;
20379;SDS011;10349;48.666;8.948;2023-02-28T04:48:23;5.87;;;3.30;;
20379;SDS011;10349;48.666;8.948;2023-02-28T04:50:50;6.60;;;5.60;;
20379;SDS011;10349;48.666;8.948;2023-02-28T04:53:16;5.13;;;4.57;;
20379;SDS011;10349;48.666;8.948;2023-02-28T04:55:42;3.30;;;3.03;;
20379;SDS011;10349;48.666;8.948;2023-02-28T04:58:08;4.63;;;3.90;;
20379;SDS011;10349;48.666;8.948;2023-02-28T05:00:34;8.27;;;5.43;;
20379;SDS011;10349;48.666;8.948;2023-02-28T05:03:00;5.43;;;4.77;;
20379;SDS011;10349;48.666;8.948;2023-02-28T05:05:26;3.77;;;3.47;;
20379;SDS011;10349;48.666;8.948;2023-02-28T05:07:52;7.37;;;5.40;;
20379;SDS011;10349;48.666;8.948;2023-02-28T05:10:19;5.80;;;5.13;;
20379;SDS011;10349;48.666;8.948;2023-02-28T05:12:44;5.80;;;4.53;;
20379;SDS011;10349;48.666;8.948;2023-02-28T05:15:12;4.53;;;4.10;;
20379;SDS011;10349;48.666;8.948;2023-02-28T05:17:41;15.17;;;4.70;;
20379;SDS011;10349;48.666;8.948;2023-02-28T05:20:08;4.97;;;4.57;;
20379;SDS011;10349;48.666;8.948;2023-02-28T05:22:38;8.53;;;4.10;;
20379;SDS011;10349;48.666;8.948;2023-02-28T05:25:05;6.30;;;5.30;;
20379;SDS011;10349;48.666;8.948;2023-02-28T05:27:31;5.73;;;3.43;;
20379;SDS011;10349;48.666;8.948;2023-02-28T05:29:57;5.10;;;4.67;;
20379;SDS011;10349;48.666;8.948;2023-02-28T05:32:24;5.50;;;4.63;;
20379;SDS011;10349;48.666;8.948;2023-02-28T05:34:49;4.50;;;4.30;;
20379;SDS011;10349;48.666;8.948;2023-02-28T05:37:15;4.87;;;4.53;;
20379;SDS011;10349;48.666;8.948;2023-02-28T05:39:42;5.73;;;5.33;;
20379;SDS011;10349;48.666;8.948;2023-02-28T05:42:07;4.77;;;4.20;;
20379;SDS011;10349;48.666;8.948;2023-02-28T05:44:35;8.70;;;5.17;;
20379;SDS011;10349;48.666;8.948;2023-02-28T05:47:01;12.23;;;4.77;;
20379;SDS011;10349;48.666;8.948;2023-02-28T05:49:27;5.53;;;4.63;;
20379;SDS011;10349;48.666;8.948;2023-02-28T05:51:53;5.50;;;3.97;;
20379;SDS011;10349;48.666;8.948;2023-02-28T05:54:18;6.33;;;4.87;;
20379;SDS011;10349;48.666;8.948;2023-02-28T05:56:46;6.87;;;4.70;;
20379;SDS011;10349;48.666;8.948;2023-02-28T05:59:12;10.17;;;4.47;;
20379;SDS011;10349;48.666;8.948;2023-02-28T06:01:39;5.00;;;4.57;;
20379;SDS011;10349;48.666;8.948;2023-02-28T06:04:08;6.17;;;4.90;;
20379;SDS011;10349;48.666;8.948;2023-02-28T06:06:35;4.83;;;4.43;;
20379;SDS011;10349;48.666;8.948;2023-02-28T06:09:04;5.97;;;5.20;;
20379;SDS011;10349;48.666;8.948;2023-02-28T06:11:30;11.57;;;4.83;;
20379;SDS011;10349;48.666;8.948;2023-02-28T06:13:58;4.63;;;4.00;;
20379;SDS011;10349;48.666;8.948;2023-02-28T06:16:29;4.90;;;4.40;;
20379;SDS011;10349;48.666;8.948;2023-02-28T06:18:59;5.70;;;4.40;;
20379;SDS011;10349;48.666;8.948;2023-02-28T06:21:26;11.10;;;5.47;;
20379;SDS011;10349;48.666;8.948;2023-02-28T06:23:53;9.30;;;6.40;;
20379;SDS011;10349;48.666;8.948;2023-02-28T06:26:19;8.73;;;5.90;;
20379;SDS011;10349;48.666;8.948;2023-02-28T06:28:45;5.80;;;4.00;;
20379;SDS011;10349;48.666;8.948;2023-02-28T06:31:12;8.03;;;5.30;;
20379;SDS011;10349;48.666;8.948;2023-02-28T06:33:41;9.97;;;5.50;;
20379;SDS011;10349;48.666;8.948;2023-02-28T06:36:08;5.60;;;4.47;;
20379;SDS011;10349;48.666;8.948;2023-02-28T06:38:35;6.23;;;5.13;;
20379;SDS011;10349;48.666;8.948;2023-02-28T06:41:03;7.17;;;4.97;;
20379;SDS011;10349;48.666;8.948;2023-02-28T06:43:31;5.67;;;4.83;;
20379;SDS011;10349;48.666;8.948;2023-02-28T06:45:59;11.83;;;5.80;;
20379;SDS011;10349;48.666;8.948;2023-02-28T06:48:27;14.50;;;5.77;;
20379;SDS011;10349;48.666;8.948;2023-02-28T06:51:06;7.07;;;5.00;;
20379;SDS011;10349;48.666;8.948;2023-02-28T06:53:34;8.43;;;5.60;;
20379;SDS011;10349;48.666;8.948;2023-02-28T06:56:03;8.47;;;4.77;;
20379;SDS011;10349;48.666;8.948;2023-02-28T06:58:34;5.33;;;4.93;;
20379;SDS011;10349;48.666;8.948;2023-02-28T07:01:00;6.80;;;4.50;;
20379;SDS011;10349;48.666;8.948;2023-02-28T07:03:27;6.30;;;5.03;;
20379;SDS011;10349;48.666;8.948;2023-02-28T07:05:52;6.33;;;5.73;;
20379;SDS011;10349;48.666;8.948;2023-02-28T07:08:18;7.23;;;6.17;;
20379;SDS011;10349;48.666;8.948;2023-02-28T07:10:44;4.80;;;4.30;;
20379;SDS011;10349;48.666;8.948;2023-02-28T07:13:10;5.03;;;4.60;;
20379;SDS011;10349;48.666;8.948;2023-02-28T07:15:37;7.83;;;5.90;;
20379;SDS011;10349;48.666;8.948;2023-02-28T07:18:02;8.53;;;6.13;;
20379;SDS011;10349;48.666;8.948;2023-02-28T07:20:28;6.50;;;5.60;;
20379;SDS011;10349;48.666;8.948;2023-02-28T07:22:54;11.00;;;6.53;;
20379;SDS011;10349;48.666;8.948;2023-02-28T07:25:25;12.53;;;6.10;;
20379;SDS011;10349;48.666;8.948;2023-02-28T07:27:52;7.53;;;5.40;;
20379;SDS011;10349;48.666;8.948;2023-02-28T07:30:19;6.60;;;5.47;;
20379;SDS011;10349;48.666;8.948;2023-02-28T07:32:44;6.47;;;5.20;;
20379;SDS011;10349;48.666;8.948;2023-02-28T07:35:10;9.93;;;5.37;;
20379;SDS011;10349;48.666;8.948;2023-02-28T07:37:36;5.53;;;5.07;;
20379;SDS011;10349;48.666;8.948;2023-02-28T07:40:03;9.60;;;5.00;;
20379;SDS011;10349;48.666;8.948;2023-02-28T07:42:42;6.00;;;4.33;;
20379;SDS011;10349;48.666;8.948;2023-02-28T07:45:08;7.93;;;6.47;;
20379;SDS011;10349;48.666;8.948;2023-02-28T07:47:39;10.73;;;7.53;;
20379;SDS011;10349;48.666;8.948;2023-02-28T07:50:08;11.90;;;7.97;;
20379;SDS011;10349;48.666;8.948;2023-02-28T07:52:36;8.93;;;6.80;;
20379;SDS011;10349;48.666;8.948;2023-02-28T07:55:03;13.40;;;7.03;;
20379;SDS011;10349;48.666;8.948;2023-02-28T07:57:30;6.77;;;6.17;;
20379;SDS011;10349;48.666;8.948;2023-02-28T07:59:56;14.77;;;6.20;;
20379;SDS011;10349;48.666;8.948;2023-02-28T08:02:21;11.50;;;7.07;;
20379;SDS011;10349;48.666;8.948;2023-02-28T08:04:51;14.80;;;7.03;;
20379;SDS011;10349;48.666;8.948;2023-02-28T08:07:17;10.57;;;6.93;;
20379;SDS011;10349;48.666;8.948;2023-02-28T08:09:44;10.40;;;5.87;;
20379;SDS011;10349;48.666;8.948;2023-02-28T08:12:13;14.63;;;6.63;;
20379;SDS011;10349;48.666;8.948;2023-02-28T08:14:40;10.63;;;6.23;;
20379;SDS011;10349;48.666;8.948;2023-02-28T08:17:05;6.80;;;5.90;;
20379;SDS011;10349;48.666;8.948;2023-02-28T08:19:31;9.87;;;6.40;;
20379;SDS011;10349;48.666;8.948;2023-02-28T08:21:57;10.00;;;6.40;;
20379;SDS011;10349;48.666;8.948;2023-02-28T08:24:23;7.50;;;6.57;;
20379;SDS011;10349;48.666;8.948;2023-02-28T08:26:49;11.00;;;6.47;;
20379;SDS011;10349;48.666;8.948;2023-02-28T08:29:15;9.70;;;5.67;;
20379;SDS011;10349;48.666;8.948;2023-02-28T08:31:40;13.50;;;7.43;;
20379;SDS011;10349;48.666;8.948;2023-02-28T08:34:07;13.03;;;6.37;;
20379;SDS011;10349;48.666;8.948;2023-02-28T08:36:37;11.20;;;8.17;;
20379;SDS011;10349;48.666;8.948;2023-02-28T08:39:04;11.07;;;6.87;;
20379;SDS011;10349;48.666;8.948;2023-02-28T08:41:30;8.53;;;6.63;;
20379;SDS011;10349;48.666;8.948;2023-02-28T08:43:56;8.00;;;5.33;;
20379;SDS011;10349;48.666;8.948;2023-02-28T08:46:22;12.23;;;7.60;;
20379;SDS011;10349;48.666;8.948;2023-02-28T08:48:51;11.10;;;7.87;;
20379;SDS011;10349;48.666;8.948;2023-02-28T08:51:19;15.33;;;8.33;;
20379;SDS011;10349;48.666;8.948;2023-02-28T08:53:52;8.47;;;7.07;;
20379;SDS011;10349;48.666;8.948;2023-02-28T08:56:19;9.67;;;7.53;;
20379;SDS011;10349;48.666;8.948;2023-02-28T08:58:46;10.33;;;7.10;;
20379;SDS011;10349;48.666;8.948;2023-02-28T09:01:14;7.47;;;6.70;;
20379;SDS011;10349;48.666;8.948;2023-02-28T09:03:49;9.83;;;6.43;;
20379;SDS011;10349;48.666;8.948;2023-02-28T09:06:20;9.23;;;7.30;;
20379;SDS011;10349;48.666;8.948;2023-02-28T09:08:50;8.57;;;6.43;;
20379;SDS011;10349;48.666;8.948;2023-02-28T09:11:16;9.77;;;8.00;;
20379;SDS011;10349;48.666;8.948;2023-02-28T09:13:43;8.63;;;7.33;;
20379;SDS011;10349;48.666;8.948;2023-02-28T09:16:10;8.77;;;6.23;;
20379;SDS011;10349;48.666;8.948;2023-02-28T09:18:39;8.00;;;6.67;;
20379;SDS011;10349;48.666;8.948;2023-02-28T09:21:05;9.10;;;6.60;;
20379;SDS011;10349;48.666;8.948;2023-02-28T09:23:33;13.70;;;7.90;;
20379;SDS011;10349;48.666;8.948;2023-02-28T09:25:59;12.13;;;5.87;;
20379;SDS011;10349;48.666;8.948;2023-02-28T09:28:30;9.90;;;7.50;;
20379;SDS011;10349;48.666;8.948;2023-02-28T09:30:56;10.60;;;6.30;;
20379;SDS011;10349;48.666;8.948;2023-02-28T09:33:25;9.40;;;6.83;;
20379;SDS011;10349;48.666;8.948;2023-02-28T09:35:51;13.37;;;7.37;;
20379;SDS011;10349;48.666;8.948;2023-02-28T09:38:23;12.93;;;6.93;;
20379;SDS011;10349;48.666;8.948;2023-02-28T09:40:50;10.90;;;6.43;;
20379;SDS011;10349;48.666;8.948;2023-02-28T09:43:29;8.17;;;6.87;;
20379;SDS011;10349;48.666;8.948;2023-02-28T09:54:16;12.30;;;7.10;;
20379;SDS011;10349;48.666;8.948;2023-02-28T09:56:54;10.60;;;7.47;;
20379;SDS011;10349;48.666;8.948;2023-02-28T09:59:37;18.13;;;8.50;;
20379;SDS011;10349;48.666;8.948;2023-02-28T10:02:13;11.63;;;7.30;;
20379;SDS011;10349;48.666;8.948;2023-02-28T10:12:55;7.87;;;7.10;;
20379;SDS011;10349;48.666;8.948;2023-02-28T10:15:24;15.83;;;7.60;;
20379;SDS011;10349;48.666;8.948;2023-02-28T10:18:05;14.27;;;8.30;;
20379;SDS011;10349;48.666;8.948;2023-02-28T10:20:39;10.40;;;7.60;;
20379;SDS011;10349;48.666;8.948;2023-02-28T10:23:27;12.03;;;6.87;;
20379;SDS011;10349;48.666;8.948;2023-02-28T10:26:01;8.40;;;7.60;;
20379;SDS011;10349;48.666;8.948;2023-02-28T10:28:43;7.27;;;6.60;;
20379;SDS011;10349;48.666;8.948;2023-02-28T10:31:11;11.10;;;6.90;;
20379;SDS011;10349;48.666;8.948;2023-02-28T10:33:42;13.63;;;6.77;;
20379;SDS011;10349;48.666;8.948;2023-02-28T10:36:08;8.50;;;7.20;;
20379;SDS011;10349;48.666;8.948;2023-02-28T10:38:42;8.63;;;7.10;;
20379;SDS011;10349;48.666;8.948;2023-02-28T10:41:10;11.03;;;7.60;;
20379;SDS011;10349;48.666;8.948;2023-02-28T10:43:40;11.60;;;6.93;;
20379;SDS011;10349;48.666;8.948;2023-02-28T10:48:34;12.53;;;7.60;;
20379;SDS011;10349;48.666;8.948;2023-02-28T10:51:03;9.37;;;7.30;;
20379;SDS011;10349;48.666;8.948;2023-02-28T10:53:31;12.33;;;8.13;;
20379;SDS011;10349;48.666;8.948;2023-02-28T10:58:42;11.33;;;7.00;;
20379;SDS011;10349;48.666;8.948;2023-02-28T11:01:25;8.77;;;6.77;;
20379;SDS011;10349;48.666;8.948;2023-02-28T11:09:41;8.87;;;7.40;;
20379;SDS011;10349;48.666;8.948;2023-02-28T11:12:26;9.07;;;5.87;;
20379;SDS011;10349;48.666;8.948;2023-02-28T11:14:57;9.90;;;6.43;;
20379;SDS011;10349;48.666;8.948;2023-02-28T11:17:29;9.20;;;7.10;;
20379;SDS011;10349;48.666;8.948;2023-02-28T11:20:04;13.17;;;7.80;;
20379;SDS011;10349;48.666;8.948;2023-02-28T11:22:37;10.67;;;7.50;;
20379;SDS011;10349;48.666;8.948;2023-02-28T11:25:27;10.30;;;7.00;;
20379;SDS011;10349;48.666;8.948;2023-02-28T11:27:57;8.57;;;7.60;;
20379;SDS011;10349;48.666;8.948;2023-02-28T11:35:57;8.50;;;7.50;;
20379;SDS011;10349;48.666;8.948;2023-02-28T11:38:26;11.67;;;8.60;;
20379;SDS011;10349;48.666;8.948;2023-02-28T11:40:57;17.50;;;10.07;;
20379;SDS011;10349;48.666;8.948;2023-02-28T11:43:38;9.13;;;7.10;;
20379;SDS011;10349;48.666;8.948;2023-02-28T11:49:32;9.63;;;8.00;;
20379;SDS011;10349;48.666;8.948;2023-02-28T11:52:17;13.83;;;8.47;;
20379;SDS011;10349;48.666;8.948;2023-02-28T11:55:16;11.47;;;7.47;;
20379;SDS011;10349;48.666;8.948;2023-02-28T12:03:45;11.47;;;8.07;;
20379;SDS011;10349;48.666;8.948;2023-02-28T12:06:25;8.90;;;7.53;;
20379;SDS011;10349;48.666;8.948;2023-02-28T12:21:48;15.77;;;9.13;;
20379;SDS011;10349;48.666;8.948;2023-02-28T12:27:12;15.80;;;8.57;;
20379;SDS011;10349;48.666;8.948;2023-02-28T12:29:47;11.40;;;8.67;;
20379;SDS011;10349;48.666;8.948;2023-02-28T12:32:35;13.07;;;8.50;;
20379;SDS011;10349;48.666;8.948;2023-02-28T12:35:05;16.10;;;9.17;;
20379;SDS011;10349;48.666;8.948;2023-02-28T12:37:59;17.67;;;8.50;;
20379;SDS011;10349;48.666;8.948;2023-02-28T12:43:21;15.00;;;8.57;;
20379;SDS011;10349;48.666;8.948;2023-02-28T12:45:55;17.80;;;10.37;;
20379;SDS011;10349;48.666;8.948;2023-02-28T12:48:25;8.03;;;7.17;;
20379;SDS011;10349;48.666;8.948;2023-02-28T12:50:56;14.83;;;7.30;;
20379;SDS011;10349;48.666;8.948;2023-02-28T12:53:26;9.00;;;7.57;;
20379;SDS011;10349;48.666;8.948;2023-02-28T12:56:16;10.40;;;8.23;;
20379;SDS011;10349;48.666;8.948;2023-02-28T12:59:01;12.57;;;8.67;;
20379;SDS011;10349;48.666;8.948;2023-02-28T13:01:47;12.17;;;8.10;;
20379;SDS011;10349;48.666;8.948;2023-02-28T13:06:59;12.93;;;7.80;;
20379;SDS011;10349;48.666;8.948;2023-02-28T13:09:35;13.93;;;8.53;;
20379;SDS011;10349;48.666;8.948;2023-02-28T13:12:04;15.20;;;8.13;;
20379;SDS011;10349;48.666;8.948;2023-02-28T13:14:38;13.17;;;8.40;;
20379;SDS011;10349;48.666;8.948;2023-02-28T13:25:05;12.10;;;8.10;;
20379;SDS011;10349;48.666;8.948;2023-02-28T13:28:13;15.07;;;8.70;;
20379;SDS011;10349;48.666;8.948;2023-02-28T13:31:14;11.97;;;8.27;;
20379;SDS011;10349;48.666;8.948;2023-02-28T13:38:44;9.90;;;8.20;;
20379;SDS011;10349;48.666;8.948;2023-02-28T13:46:32;14.47;;;7.90;;
20379;SDS011;10349;48.666;8.948;2023-02-28T13:57:44;9.70;;;8.63;;
20379;SDS011;10349;48.666;8.948;2023-02-28T14:06:14;8.93;;;8.03;;
20379;SDS011;10349;48.666;8.948;2023-02-28T14:11:39;14.63;;;9.47;;
20379;SDS011;10349;48.666;8.948;2023-02-28T14:14:07;13.93;;;8.10;;
20379;SDS011;10349;48.666;8.948;2023-02-28T14:16:53;9.43;;;7.47;;
20379;SDS011;10349;48.666;8.948;2023-02-28T14:19:24;11.13;;;8.00;;
20379;SDS011;10349;48.666;8.948;2023-02-28T14:33:13;15.10;;;8.90;;
20379;SDS011;10349;48.666;8.948;2023-02-28T14:36:00;15.00;;;8.40;;
20379;SDS011;10349;48.666;8.948;2023-02-28T14:38:35;14.20;;;9.30;;
20379;SDS011;10349;48.666;8.948;2023-02-28T14:41:12;14.33;;;9.03;;
20379;SDS011;10349;48.666;8.948;2023-02-28T14:43:50;13.80;;;8.27;;
20379;SDS011;10349;48.666;8.948;2023-02-28T14:46:17;14.80;;;9.80;;
20379;SDS011;10349;48.666;8.948;2023-02-28T14:48:48;13.67;;;8.33;;
20379;SDS011;10349;48.666;8.948;2023-02-28T14:51:19;12.93;;;7.17;;
20379;SDS011;10349;48.666;8.948;2023-02-28T14:53:49;14.67;;;7.33;;
20379;SDS011;10349;48.666;8.948;2023-02-28T14:56:23;10.90;;;7.03;;
20379;SDS011;10349;48.666;8.948;2023-02-28T14:58:54;14.97;;;7.93;;
20379;SDS011;10349;48.666;8.948;2023-02-28T15:01:21;8.10;;;7.03;;
20379;SDS011;10349;48.666;8.948;2023-02-28T15:03:56;9.53;;;7.20;;
20379;SDS011;10349;48.666;8.948;2023-02-28T15:06:23;12.60;;;7.20;;
20379;SDS011;10349;48.666;8.948;2023-02-28T15:09:06;11.40;;;7.70;;
20379;SDS011;10349;48.666;8.948;2023-02-28T15:11:40;10.63;;;7.87;;
20379;SDS011;10349;48.666;8.948;2023-02-28T15:14:06;9.57;;;7.43;;
20379;SDS011;10349;48.666;8.948;2023-02-28T15:16:36;11.67;;;7.90;;
20379;SDS011;10349;48.666;8.948;2023-02-28T15:19:08;12.73;;;8.47;;
20379;SDS011;10349;48.666;8.948;2023-02-28T15:21:37;10.00;;;7.20;;
20379;SDS011;10349;48.666;8.948;2023-02-28T15:24:07;9.00;;;7.10;;
20379;SDS011;10349;48.666;8.948;2023-02-28T15:26:52;11.40;;;7.83;;
20379;SDS011;10349;48.666;8.948;2023-02-28T15:29:24;10.63;;;7.50;;
20379;SDS011;10349;48.666;8.948;2023-02-28T15:31:56;15.87;;;8.10;;
20379;SDS011;10349;48.666;8.948;2023-02-28T15:34:36;14.20;;;7.27;;
20379;SDS011;10349;48.666;8.948;2023-02-28T15:39:58;10.03;;;7.70;;
20379;SDS011;10349;48.666;8.948;2023-02-28T15:42:35;11.33;;;7.23;;
20379;SDS011;10349;48.666;8.948;2023-02-28T15:45:02;9.97;;;7.97;;
20379;SDS011;10349;48.666;8.948;2023-02-28T15:47:30;11.53;;;7.10;;
20379;SDS011;10349;48.666;8.948;2023-02-28T15:50:29;13.30;;;8.60;;
20379;SDS011;10349;48.666;8.948;2023-02-28T15:52:48;10.10;;;6.90;;
20379;SDS011;10349;48.666;8.948;2023-02-28T15:55:21;13.80;;;8.13;;
20379;SDS011;10349;48.666;8.948;2023-02-28T15:57:48;12.73;;;7.93;;
20379;SDS011;10349;48.666;8.948;2023-02-28T16:00:19;9.23;;;6.57;;
20379;SDS011;10349;48.666;8.948;2023-02-28T16:02:49;11.57;;;8.10;;
20379;SDS011;10349;48.666;8.948;2023-02-28T16:05:20;12.87;;;7.80;;
20379;SDS011;10349;48.666;8.948;2023-02-28T16:07:56;10.23;;;8.33;;
20379;SDS011;10349;48.666;8.948;2023-02-28T16:10:42;9.63;;;7.47;;
20379;SDS011;10349;48.666;8.948;2023-02-28T16:13:08;8.40;;;7.60;;
20379;SDS011;10349;48.666;8.948;2023-02-28T16:15:43;9.60;;;7.47;;
20379;SDS011;10349;48.666;8.948;2023-02-28T16:18:12;11.33;;;7.87;;
20379;SDS011;10349;48.666;8.948;2023-02-28T16:20:38;13.10;;;8.33;;
20379;SDS011;10349;48.666;8.948;2023-02-28T16:23:05;11.63;;;8.30;;
20379;SDS011;10349;48.666;8.948;2023-02-28T16:25:37;11.93;;;7.33;;
20379;SDS011;10349;48.666;8.948;2023-02-28T16:28:12;11.87;;;6.80;;
20379;SDS011;10349;48.666;8.948;2023-02-28T16:30:46;14.97;;;6.90;;
20379;SDS011;10349;48.666;8.948;2023-02-28T16:33:11;14.37;;;8.03;;
20379;SDS011;10349;48.666;8.948;2023-02-28T16:35:37;9.17;;;7.40;;
20379;SDS011;10349;48.666;8.948;2023-02-28T16:38:03;12.80;;;8.60;;
20379;SDS011;10349;48.666;8.948;2023-02-28T16:40:33;13.23;;;7.53;;
20379;SDS011;10349;48.666;8.948;2023-02-28T16:43:00;11.07;;;6.03;;
20379;SDS011;10349;48.666;8.948;2023-02-28T16:45:29;11.00;;;6.90;;
20379;SDS011;10349;48.666;8.948;2023-02-28T16:47:55;12.73;;;6.30;;
20379;SDS011;10349;48.666;8.948;2023-02-28T16:50:22;13.13;;;7.50;;
20379;SDS011;10349;48.666;8.948;2023-02-28T16:52:50;10.57;;;6.70;;
20379;SDS011;10349;48.666;8.948;2023-02-28T16:55:22;16.97;;;8.60;;
20379;SDS011;10349;48.666;8.948;2023-02-28T16:57:51;10.23;;;8.00;;
20379;SDS011;10349;48.666;8.948;2023-02-28T17:00:19;10.37;;;7.87;;
20379;SDS011;10349;48.666;8.948;2023-02-28T17:02:46;10.23;;;7.80;;
20379;SDS011;10349;48.666;8.948;2023-02-28T17:05:39;11.73;;;7.97;;
20379;SDS011;10349;48.666;8.948;2023-02-28T17:08:05;14.17;;;7.80;;
20379;SDS011;10349;48.666;8.948;2023-02-28T17:10:31;8.00;;;6.40;;
20379;SDS011;10349;48.666;8.948;2023-02-28T17:12:56;10.40;;;6.80;;
20379;SDS011;10349;48.666;8.948;2023-02-28T17:15:25;14.93;;;7.60;;
20379;SDS011;10349;48.666;8.948;2023-02-28T17:17:51;13.00;;;8.30;;
20379;SDS011;10349;48.666;8.948;2023-02-28T17:20:22;12.83;;;7.80;;
20379;SDS011;10349;48.666;8.948;2023-02-28T17:22:48;9.23;;;7.43;;
20379;SDS011;10349;48.666;8.948;2023-02-28T17:25:19;11.33;;;7.70;;
20379;SDS011;10349;48.666;8.948;2023-02-28T17:27:45;10.00;;;7.70;;
20379;SDS011;10349;48.666;8.948;2023-02-28T17:32:37;11.80;;;7.30;;
20379;SDS011;10349;48.666;8.948;2023-02-28T17:35:03;17.87;;;7.97;;
20379;SDS011;10349;48.666;8.948;2023-02-28T17:37:29;11.77;;;7.97;;
20379;SDS011;10349;48.666;8.948;2023-02-28T17:39:55;11.67;;;7.57;;
20379;SDS011;10349;48.666;8.948;2023-02-28T17:42:21;10.90;;;7.67;;
20379;SDS011;10349;48.666;8.948;2023-02-28T17:44:46;9.53;;;7.53;;